createdAt,value
2023-10-26T05:01:04.706Z,86.75
2023-10-26T05:04:19.103Z,86.32
2023-10-26T05:07:35.161Z,85.92
2023-10-26T05:10:52.870Z,84.30
2023-10-26T05:14:06.181Z,83.56
2023-10-26T05:17:11.132Z,83.24
2023-10-26T05:20:17.368Z,83.19
2023-10-26T05:23:32.472Z,83.75
2023-10-26T05:26:48.518Z,83.43
2023-10-26T05:29:54.608Z,83.86
2023-10-26T05:33:15.491Z,84.70
2023-10-26T05:36:36.313Z,84.31
2023-10-26T05:40:38.691Z,83.51
2023-10-26T05:44:06.582Z,83.96
2023-10-26T05:47:38.591Z,83.36
2023-10-26T05:51:06.192Z,83.62
2023-10-26T05:54:31.882Z,83.17
2023-10-26T05:57:46.645Z,81.62
2023-10-26T06:00:52.555Z,81.59
2023-10-26T06:17:06.428Z,79.49
2023-10-26T06:20:38.351Z,78.43
2023-10-26T06:24:02.016Z,76.90
2023-10-26T06:27:17.287Z,76.73
2023-10-26T06:30:33.353Z,76.87
2023-10-26T06:34:12.022Z,76.90
2023-10-26T06:37:39.411Z,77.29
2023-10-26T06:41:09.126Z,77.18
2023-10-26T06:44:36.348Z,77.86
2023-10-26T06:48:19.798Z,78.35
2023-10-26T06:53:00.067Z,77.47
2023-10-26T07:02:16.437Z,77.21
2023-10-26T07:06:10.605Z,76.93
2023-10-26T07:09:41.115Z,77.18
2023-10-26T07:13:23.279Z,77.76
2023-10-26T07:16:42.984Z,77.05
2023-10-26T07:19:59.461Z,78.63
2023-10-26T07:33:34.582Z,79.13
2023-10-26T07:36:45.670Z,78.86
2023-10-26T07:40:29.384Z,77.78
2023-10-26T07:43:35.752Z,77.48
2023-10-26T07:46:57.165Z,77.16
2023-10-26T07:50:18.811Z,78.32
2023-10-26T07:53:30.616Z,78.21
2023-10-26T07:56:55.531Z,78.22
2023-10-26T09:17:02.562Z,71.30
2023-10-26T09:20:26.732Z,70.63
2023-10-26T09:24:48.629Z,71.27
2023-10-26T09:28:19.774Z,70.71
2023-10-26T09:32:02.932Z,70.14
2023-10-26T09:42:06.567Z,68.92
2023-10-26T09:46:31.965Z,66.02
2023-10-26T09:50:07.139Z,65.53
2023-10-26T09:53:25.919Z,66.27
2023-10-26T09:57:00.938Z,66.35
2023-10-26T10:00:23.574Z,64.02
2023-10-26T10:04:03.482Z,62.63
2023-10-26T10:07:57.514Z,62.27
2023-10-26T10:11:40.199Z,62.92
2023-10-26T10:15:40.343Z,62.29
2023-10-26T10:39:38.672Z,59.04
2023-10-26T10:43:11.316Z,56.17
2023-10-26T10:46:30.741Z,55.48
2023-10-26T10:49:49.323Z,53.33
2023-10-26T10:53:10.137Z,54.43
2023-10-26T10:56:25.733Z,54.10
2023-10-26T10:59:36.385Z,55.17
2023-10-26T11:03:09.626Z,55.10
2023-10-26T11:06:24.202Z,54.36
2023-10-26T11:09:49.420Z,53.45
2023-10-26T11:13:03.697Z,53.17
2023-10-26T11:16:24.505Z,51.19
2023-10-26T11:19:38.624Z,51.37
2023-10-26T11:22:48.845Z,49.84
2023-10-26T11:51:09.864Z,41.61
2023-10-26T11:54:27.041Z,42.69
2023-10-26T11:57:43.629Z,42.42
2023-10-26T12:00:53.026Z,42.16
2023-10-26T12:04:25.668Z,41.89
2023-10-26T12:08:01.138Z,39.89
2023-10-26T12:11:11.037Z,40.98
2023-10-26T12:14:15.862Z,42.00
2023-10-26T12:17:32.545Z,42.02
2023-10-26T12:20:44.070Z,41.91
2023-10-26T12:23:55.168Z,43.08
2023-10-26T12:27:06.148Z,43.15
2023-10-26T12:30:13.045Z,43.75
2023-10-26T12:33:22.242Z,43.96
2023-10-26T12:36:33.907Z,44.80
2023-10-26T12:39:39.242Z,50.63
2023-10-26T12:42:55.175Z,50.87
2023-10-26T12:46:06.095Z,50.85
2023-10-26T12:49:25.757Z,50.61
2023-10-26T12:52:49.554Z,50.39
2023-10-26T12:56:25.964Z,50.52
2023-10-26T12:59:42.759Z,50.60
2023-10-26T13:02:47.478Z,48.95
2023-10-26T13:05:57.096Z,48.59
2023-10-26T13:09:03.552Z,48.68
2023-10-26T13:12:18.198Z,48.84
2023-10-26T13:15:34.603Z,49.18
2023-10-26T13:18:40.235Z,47.75
2023-10-26T13:21:57.955Z,48.13
2023-10-26T13:25:04.259Z,49.27
2023-10-26T13:28:08.318Z,49.12
2023-10-26T13:31:32.845Z,49.60
2023-10-26T13:34:51.083Z,49.04
2023-10-26T13:38:17.019Z,48.75
2023-10-26T13:41:34.976Z,48.77
2023-10-26T13:44:53.717Z,49.13
2023-10-26T13:48:18.731Z,49.84
2023-10-26T13:51:48.995Z,49.39
2023-10-26T13:54:53.881Z,49.38
2023-10-26T13:58:13.485Z,49.98
2023-10-26T14:01:34.722Z,50.16
2023-10-26T14:04:50.895Z,50.86
2023-10-26T14:08:13.603Z,50.60
2023-10-26T14:11:30.406Z,50.03
2023-10-26T14:14:59.281Z,49.64
2023-10-26T14:18:21.428Z,50.45
2023-10-26T14:21:45.938Z,52.22
2023-10-26T14:25:04.551Z,52.88
2023-10-26T14:28:07.833Z,53.45
2023-10-26T14:31:12.108Z,53.44
2023-10-26T14:34:26.764Z,53.74
2023-10-26T14:37:31.129Z,54.06
2023-10-26T14:40:47.413Z,53.97
2023-10-26T14:43:56.769Z,54.09
2023-10-26T14:47:02.220Z,54.36
2023-10-26T14:50:11.536Z,54.16
2023-10-26T14:53:38.702Z,55.22
2023-10-26T14:56:51.765Z,55.79
2023-10-26T14:59:57.621Z,55.06
2023-10-26T15:03:13.893Z,55.31
2023-10-26T15:06:38.751Z,55.33
2023-10-26T15:10:19.985Z,55.89
2023-10-26T15:13:22.538Z,56.22
2023-10-26T15:16:27.966Z,56.46
2023-10-26T15:19:36.611Z,56.49
2023-10-26T15:22:43.038Z,56.53
2023-10-26T15:25:47.595Z,56.34
2023-10-26T15:29:09.772Z,57.17
2023-10-26T15:32:25.937Z,57.20
2023-10-26T15:35:44.995Z,56.81
2023-10-26T15:38:49.419Z,57.09
2023-10-26T15:41:57.124Z,58.14
2023-10-26T15:45:15.910Z,58.49
2023-10-26T15:49:30.973Z,59.18
2023-10-26T15:52:05.435Z,59.30
2023-10-26T15:55:19.375Z,58.88
2023-10-26T15:58:34.758Z,58.03
2023-10-26T16:01:58.630Z,57.67
2023-10-26T16:05:32.459Z,57.59
2023-10-26T16:09:24.467Z,59.09
2023-10-26T16:12:57.790Z,59.46
2023-10-26T16:16:19.147Z,60.79
2023-10-26T16:19:32.951Z,60.70
2023-10-26T16:22:46.828Z,60.52
2023-10-26T16:26:03.557Z,61.26
2023-10-26T16:29:23.514Z,61.69
2023-10-26T16:32:53.618Z,61.63
2023-10-26T16:35:58.403Z,62.66
2023-10-26T16:39:01.831Z,62.61
2023-10-26T16:42:11.123Z,63.38
2023-10-26T16:45:16.014Z,62.58
2023-10-26T16:48:21.929Z,63.50
2023-10-26T16:51:29.443Z,63.39
2023-10-26T16:54:46.644Z,63.33
2023-10-26T16:58:04.277Z,64.09
2023-10-26T17:01:20.536Z,63.88
2023-10-26T17:04:27.969Z,64.12
2023-10-26T17:07:32.731Z,64.27
2023-10-26T17:10:54.693Z,64.92
2023-10-26T17:14:04.368Z,65.37
2023-10-26T17:17:20.605Z,65.60
2023-10-26T17:20:25.336Z,65.02
2023-10-26T17:23:36.007Z,65.70
2023-10-26T17:26:47.525Z,65.44
2023-10-26T17:29:51.493Z,65.88
2023-10-26T17:32:54.776Z,66.16
2023-10-26T17:36:10.495Z,66.03
2023-10-26T17:39:33.385Z,65.29
2023-10-26T17:42:56.569Z,65.88
2023-10-26T17:46:17.730Z,65.89
2023-10-26T17:49:43.457Z,66.57
2023-10-26T17:52:51.750Z,67.84
2023-10-26T17:56:03.235Z,68.56
2023-10-26T17:59:06.406Z,69.17
2023-10-26T18:02:26.129Z,69.51
2023-10-26T18:05:48.990Z,69.38
2023-10-26T18:09:10.696Z,69.31
2023-10-26T18:12:33.349Z,68.38
2023-10-26T18:15:42.899Z,70.55
2023-10-26T18:19:07.400Z,69.14
2023-10-26T18:22:29.955Z,71.91
2023-10-26T18:25:46.775Z,74.54
2023-10-26T18:29:10.268Z,74.58
2023-10-26T18:32:27.707Z,74.63
2023-10-26T18:35:32.909Z,75.77
2023-10-26T18:38:39.943Z,77.16
2023-10-26T18:41:54.098Z,78.22
2023-10-26T18:45:11.348Z,79.91
2023-10-26T18:48:32.508Z,78.74
2023-10-26T18:51:52.224Z,80.98
2023-10-26T18:55:20.390Z,80.34
2023-10-26T18:58:43.424Z,81.53
2023-10-26T19:02:09.251Z,82.13
2023-10-26T19:05:15.752Z,82.12
2023-10-26T19:08:27.449Z,81.93
2023-10-26T19:11:31.359Z,83.89
2023-10-26T19:14:48.872Z,83.88
2023-10-26T19:18:00.814Z,83.49
2023-10-26T19:21:13.834Z,84.28
2023-10-26T19:24:17.309Z,84.23
2023-10-26T19:27:33.406Z,83.92
2023-10-26T19:30:36.753Z,83.13
2023-10-26T19:33:46.849Z,83.91
2023-10-26T19:36:54.635Z,85.89
2023-10-26T19:40:09.311Z,86.05
2023-10-26T19:43:33.074Z,86.38
2023-10-26T19:46:53.339Z,87.30
2023-10-26T19:50:20.280Z,87.59
2023-10-26T19:53:42.959Z,86.94
2023-10-26T19:57:04.985Z,87.00
2023-10-26T20:00:18.002Z,86.64
2023-10-26T20:03:27.848Z,85.11
2023-10-26T20:06:47.265Z,85.14
2023-10-26T20:10:17.134Z,86.25
2023-10-26T20:13:46.207Z,85.86
2023-10-26T20:17:10.032Z,85.61
2023-10-26T20:20:34.134Z,85.70
2023-10-26T20:23:56.827Z,85.24
2023-10-26T20:27:17.015Z,85.11
2023-10-26T20:30:39.134Z,86.19
2023-10-26T20:34:00.367Z,87.23
2023-10-26T20:37:11.994Z,89.33
2023-10-26T20:40:17.262Z,88.67
2023-10-26T20:43:38.063Z,87.09
2023-10-26T20:46:49.507Z,87.71
2023-10-26T20:49:59.677Z,87.02
2023-10-26T20:53:22.901Z,86.68
2023-10-26T20:56:45.899Z,86.45
2023-10-26T21:00:02.401Z,86.15
2023-10-26T21:03:30.992Z,89.40
2023-10-26T21:06:55.895Z,89.18
2023-10-26T21:10:22.983Z,87.87
2023-10-26T21:13:39.626Z,86.41
2023-10-26T21:16:49.946Z,86.48
2023-10-26T21:20:09.362Z,85.30
2023-10-26T21:23:34.909Z,85.61
2023-10-26T21:26:38.630Z,86.18
2023-10-26T21:29:45.652Z,85.85
2023-10-26T21:32:52.683Z,86.12
2023-10-26T21:35:58.517Z,86.21
2023-10-26T21:39:02.166Z,86.43
2023-10-26T21:42:12.652Z,86.75
2023-10-26T21:45:16.702Z,86.11
2023-10-26T21:48:23.321Z,86.79
2023-10-26T21:51:32.466Z,87.42
2023-10-26T21:54:46.315Z,87.92
2023-10-26T21:57:50.076Z,87.41
2023-10-26T22:00:54.614Z,86.41
2023-10-26T22:04:20.850Z,85.92
2023-10-26T22:07:37.770Z,86.47
2023-10-26T22:11:04.688Z,86.38
2023-10-26T22:14:26.639Z,87.26
2023-10-26T22:17:48.760Z,87.01
2023-10-26T22:21:13.667Z,86.80
2023-10-26T22:24:17.774Z,87.45
2023-10-26T22:27:21.898Z,87.07
2023-10-26T22:30:32.762Z,87.08
2023-10-26T22:33:58.754Z,86.75
2023-10-26T22:37:05.559Z,86.77
2023-10-26T22:40:13.748Z,87.11
2023-10-26T22:43:25.000Z,87.43
2023-10-26T22:46:46.735Z,87.11
2023-10-26T22:49:56.720Z,87.12
2023-10-26T22:53:02.376Z,86.68
2023-10-26T22:56:05.771Z,86.70
2023-10-26T22:59:22.172Z,88.04
2023-10-26T23:02:25.709Z,86.91
2023-10-26T23:05:32.415Z,88.55
2023-10-26T23:08:40.636Z,89.09
2023-10-26T23:12:03.752Z,88.11
2023-10-26T23:15:23.719Z,87.91
2023-10-26T23:18:27.202Z,88.09
2023-10-26T23:21:32.516Z,87.32
2023-10-26T23:24:46.510Z,87.86
2023-10-26T23:27:56.286Z,88.68
2023-10-26T23:31:16.580Z,87.61
2023-10-26T23:34:32.851Z,89.68
2023-10-26T23:38:02.549Z,89.73
2023-10-26T23:41:17.421Z,88.70
2023-10-26T23:44:21.554Z,88.44
2023-10-26T23:47:32.207Z,88.24
2023-10-26T23:50:42.078Z,87.89
2023-10-26T23:54:02.592Z,86.72
2023-10-26T23:57:15.745Z,86.00
